aviador You're here:

GCLA Decoded Metar

LA PALMA in SPAIN
Report Time2017-10-17 11:00:00
UTC Time2017-10-17 11:19:56
Flight Rules vfr VFR
Wind010° at 10 kt
W.Decomp.*RWY 01: 9.9 kt HW 1.2 kt RCW
W.Rank010° ranks 2
Current wind is below 010° avg. (11.4)
Visibility9999 m
Phenomena:N/A
Clouds:Few 030 Hf
Expected CloudBase > 2,000 ft AGL from Temp-Dew spread
CeilingNone
Temp25°C (ISA +10)
Dew Point20°C (74% RH)
QNH1024 hPa
Density Alt1,224 ft
Elevation102 ft
Report Wrong Elevation
Raw Report
GCLA 171100Z 01010KT 350V050 9999 FEW030 25/20 Q1024=

Extra information for GCLA:More info

Metar Taf Metar & Taf Last 4 Metars F.Rules Stats Wind Profile Meteogram Temp Stats Airport Information Weather charts Add Link Nearby VenuesMetar ALERT Operation Metar Decoded Social comments